Time,TemperatureF,DewpointF,PressureIn,WindDirection,WindDirectionDegrees,WindSpeedMPH,WindSpeedGustMPH,Humidity,HourlyPrecipIn,Conditions,Clouds,dailyrainin,SolarRadiationWatts/m^2,SoftwareType,DateUTC
2013-09-03 00:01:00,73.8,73.2,29.97,SE,138,0.0,0.0,98,0.00,RA,SKC,0.00,0.0,WeatherDisplay:10.37,2013-09-03 04:01:00,
2013-09-03 00:02:00,73.8,73.2,29.97,SE,138,0.0,0.0,98,0.00,RA,SKC,0.00,0.0,WeatherDisplay:10.37,2013-09-03 04:02:00,
2013-09-03 00:05:00,73.8,73.2,29.97,SE,138,0.0,0.0,98,0.00,RA,SKC,0.00,0.0,WeatherDisplay:10.37,2013-09-03 04:05:00,
2013-09-03 00:10:00,73.9,73.3,29.97,SE,138,0.0,0.0,98,0.00,CLR,SKC,0.00,0.0,WeatherDisplay:10.37,2013-09-03 04:10:00,
2013-09-03 00:15:00,74.2,73.6,29.97,SE,138,0.0,0.0,98,0.00,CLR,SKC,0.00,0.0,WeatherDisplay:10.37,2013-09-03 04:15:00,
2013-09-03 00:20:00,74.4,73.8,29.97,SE,138,0.0,0.0,98,0.00,CLR,SKC,0.00,0.0,WeatherDisplay:10.37,2013-09-03 04:20:00,
2013-09-03 00:25:00,74.3,73.7,29.97,SE,138,0.0,0.0,98,0.00,CLR,SKC,0.00,0.0,WeatherDisplay:10.37,2013-09-03 04:25:00,
2013-09-03 00:30:00,74.3,73.7,29.98,SE,138,0.0,0.0,98,0.00,CLR,SKC,0.00,0.0,WeatherDisplay:10.37,2013-09-03 04:30:00,
2013-09-03 00:35:00,74.1,73.5,29.97,SE,138,0.0,0.0,98,0.00,CLR,SKC,0.00,0.0,WeatherDisplay:10.37,2013-09-03 04:35:00,
2013-09-03 00:40:00,73.9,73.3,29.97,SE,138,0.0,0.0,98,0.00,CLR,SKC,0.00,0.0,WeatherDisplay:10.37,2013-09-03 04:40:00,
2013-09-03 00:45:00,73.7,73.1,29.97,SE,138,0.0,0.0,98,0.00,CLR,SKC,0.00,0.0,WeatherDisplay:10.37,2013-09-03 04:45:00,
2013-09-03 00:50:00,73.7,73.1,29.97,SE,138,0.0,0.0,98,0.00,CLR,SKC,0.00,0.0,WeatherDisplay:10.37,2013-09-03 04:50:00,
2013-09-03 00:55:00,73.8,73.2,29.97,SSE,154,0.0,0.0,98,0.00,CLR,SKC,0.00,0.0,WeatherDisplay:10.37,2013-09-03 04:55:00,
2013-09-03 01:00:00,73.7,73.1,29.97,SSE,154,0.0,0.0,98,0.00,CLR,SKC,0.00,0.0,WeatherDisplay:10.37,2013-09-03 05:00:00,
2013-09-03 01:05:00,73.7,73.1,29.97,SSE,154,0.0,0.0,98,0.00,CLR,SKC,0.00,0.0,WeatherDisplay:10.37,2013-09-03 05:05:00,
2013-09-03 01:10:00,73.8,73.2,29.97,SSE,155,0.0,0.0,98,0.00,CLR,SKC,0.00,0.0,WeatherDisplay:10.37,2013-09-03 05:10:00,
2013-09-03 01:15:00,73.7,73.1,29.97,SSE,154,0.0,0.0,98,0.00,CLR,SKC,0.00,0.0,WeatherDisplay:10.37,2013-09-03 05:15:00,
2013-09-03 01:20:00,73.7,73.1,29.97,SSE,154,0.0,0.0,98,0.00,CLR,SKC,0.00,0.0,WeatherDisplay:10.37,2013-09-03 05:20:00,
2013-09-03 01:25:00,73.9,73.3,29.97,SSE,154,0.0,0.0,98,0.00,CLR,SKC,0.00,0.0,WeatherDisplay:10.37,2013-09-03 05:25:00,
2013-09-03 01:30:00,73.9,73.3,29.97,SSE,154,0.0,0.0,98,0.00,CLR,SKC,0.00,0.0,WeatherDisplay:10.37,2013-09-03 05:30:00,
2013-09-03 01:35:00,73.8,73.2,29.97,SSE,154,0.0,0.0,98,0.00,CLR,SKC,0.00,0.0,WeatherDisplay:10.37,2013-09-03 05:35:00,
2013-09-03 01:40:00,73.7,73.1,29.96,SSE,155,0.0,0.0,98,0.00,CLR,SKC,0.00,0.0,WeatherDisplay:10.37,2013-09-03 05:40:00,
2013-09-03 01:45:00,73.6,73.0,29.96,SSE,154,0.0,0.0,98,0.00,CLR,SKC,0.00,0.0,WeatherDisplay:10.37,2013-09-03 05:45:00,
2013-09-03 01:50:00,73.5,72.9,29.96,SSE,154,0.0,0.0,98,0.00,CLR,SKC,0.00,0.0,WeatherDisplay:10.37,2013-09-03 05:50:00,
2013-09-03 01:55:00,73.5,72.9,29.96,SSE,154,0.0,0.0,98,0.00,CLR,SKC,0.00,0.0,WeatherDisplay:10.37,2013-09-03 05:55:00,
2013-09-03 02:00:00,73.3,72.7,29.96,SSE,154,0.0,0.0,98,0.00,CLR,SKC,0.00,0.0,WeatherDisplay:10.37,2013-09-03 06:00:00,
2013-09-03 02:05:00,73.3,72.7,29.96,SSE,154,0.0,0.0,98,0.00,CLR,SKC,0.00,0.0,WeatherDisplay:10.37,2013-09-03 06:05:00,
2013-09-03 02:10:00,73.2,72.6,29.96,SSE,154,0.0,0.0,98,0.00,CLR,SKC,0.00,0.0,WeatherDisplay:10.37,2013-09-03 06:10:00,
2013-09-03 02:15:00,73.0,72.4,29.96,SSE,155,0.0,0.0,98,0.00,CLR,SKC,0.00,0.0,WeatherDisplay:10.37,2013-09-03 06:15:00,
2013-09-03 02:20:00,73.0,72.4,29.96,SSE,154,0.0,0.0,98,0.00,CLR,SKC,0.00,0.0,WeatherDisplay:10.37,2013-09-03 06:20:00,
2013-09-03 02:25:00,73.1,72.8,29.95,SSE,154,0.0,0.0,99,0.00,CLR,SKC,0.00,0.0,WeatherDisplay:10.37,2013-09-03 06:25:00,
2013-09-03 02:30:00,73.0,72.4,29.95,SSE,154,0.0,0.0,98,0.00,CLR,SKC,0.00,0.0,WeatherDisplay:10.37,2013-09-03 06:30:00,
2013-09-03 02:35:00,72.9,72.3,29.95,SSE,154,0.0,0.0,98,0.00,CLR,SKC,0.00,0.0,WeatherDisplay:10.37,2013-09-03 06:35:00,
2013-09-03 02:40:00,72.7,72.1,29.95,SSE,154,0.0,0.0,98,0.00,CLR,SKC,0.00,0.0,WeatherDisplay:10.37,2013-09-03 06:40:00,
2013-09-03 02:45:00,72.6,72.0,29.95,SSE,154,0.0,0.0,98,0.00,CLR,SKC,0.00,0.0,WeatherDisplay:10.37,2013-09-03 06:45:00,
2013-09-03 02:50:00,72.6,72.3,29.95,SSE,154,0.0,0.0,99,0.00,CLR,SKC,0.00,0.0,WeatherDisplay:10.37,2013-09-03 06:50:00,
2013-09-03 02:55:00,72.5,71.9,29.94,SSE,154,0.0,0.0,98,0.00,CLR,SKC,0.00,0.0,WeatherDisplay:10.37,2013-09-03 06:55:00,
2013-09-03 03:00:00,72.4,71.8,29.95,SSE,154,0.0,0.0,98,0.00,CLR,SKC,0.00,0.0,WeatherDisplay:10.37,2013-09-03 07:00:00,
2013-09-03 03:05:00,72.3,71.7,29.94,SSE,154,0.0,0.0,98,0.00,CLR,SKC,0.00,0.0,WeatherDisplay:10.37,2013-09-03 07:05:00,
2013-09-03 03:10:00,72.4,72.1,29.94,SSE,154,0.0,0.0,99,0.00,CLR,SKC,0.00,0.0,WeatherDisplay:10.37,2013-09-03 07:10:00,
2013-09-03 03:15:00,72.7,72.4,29.94,SSE,154,0.0,0.0,99,0.00,CLR,SKC,0.00,0.0,WeatherDisplay:10.37,2013-09-03 07:15:00,
2013-09-03 03:20:00,72.7,72.4,29.94,SSE,155,0.0,0.0,99,0.00,CLR,SKC,0.00,0.0,WeatherDisplay:10.37,2013-09-03 07:20:00,
2013-09-03 03:25:00,72.7,72.4,29.94,SSE,154,0.0,0.0,99,0.00,CLR,SKC,0.00,0.0,WeatherDisplay:10.37,2013-09-03 07:25:00,
2013-09-03 03:30:00,72.7,72.4,29.94,SSE,154,0.0,0.0,99,0.00,CLR,SKC,0.00,0.0,WeatherDisplay:10.37,2013-09-03 07:30:00,
2013-09-03 03:35:00,72.5,71.9,29.94,SSE,155,0.0,0.0,98,0.00,CLR,SKC,0.00,0.0,WeatherDisplay:10.37,2013-09-03 07:35:00,
2013-09-03 03:40:00,72.5,72.2,29.94,SSE,155,0.0,0.0,99,0.00,CLR,SKC,0.00,0.0,WeatherDisplay:10.37,2013-09-03 07:40:00,
2013-09-03 03:45:00,72.6,72.3,29.94,SSE,154,0.0,0.0,99,0.00,CLR,SKC,0.00,0.0,WeatherDisplay:10.37,2013-09-03 07:45:00,
2013-09-03 03:50:00,72.5,72.2,29.93,SSE,154,0.0,0.0,99,0.00,CLR,SKC,0.00,0.0,WeatherDisplay:10.37,2013-09-03 07:50:00,
2013-09-03 03:55:00,72.4,72.1,29.93,SSE,154,0.0,0.0,99,0.00,CLR,SKC,0.00,0.0,WeatherDisplay:10.37,2013-09-03 07:55:00,
2013-09-03 04:00:00,72.6,72.3,29.93,SSE,154,0.0,0.0,99,0.00,CLR,SKC,0.00,0.0,WeatherDisplay:10.37,2013-09-03 08:00:00,
2013-09-03 04:05:00,72.9,72.6,29.93,SSE,155,0.0,0.0,99,0.00,CLR,SKC,0.00,0.0,WeatherDisplay:10.37,2013-09-03 08:05:00,
2013-09-03 04:10:00,72.9,72.6,29.93,SSE,154,0.0,0.0,99,0.00,CLR,SKC,0.00,0.0,WeatherDisplay:10.37,2013-09-03 08:10:00,
2013-09-03 04:15:00,72.8,72.5,29.93,SSE,154,0.0,0.0,99,0.00,CLR,SKC,0.00,0.0,WeatherDisplay:10.37,2013-09-03 08:15:00,
2013-09-03 04:20:00,72.7,72.4,29.93,SSE,155,0.0,0.0,99,0.00,CLR,SKC,0.00,0.0,WeatherDisplay:10.37,2013-09-03 08:20:00,
2013-09-03 04:26:00,72.6,72.3,29.92,SSE,154,0.0,0.0,99,0.00,CLR,SKC,0.00,0.0,WeatherDisplay:10.37,2013-09-03 08:26:00,
2013-09-03 04:31:00,72.6,72.3,29.92,SSE,154,0.0,0.0,99,0.00,CLR,SKC,0.00,0.0,WeatherDisplay:10.37,2013-09-03 08:31:00,
2013-09-03 04:36:00,72.5,72.2,29.92,SSE,154,0.0,0.0,99,0.00,CLR,SKC,0.00,0.0,WeatherDisplay:10.37,2013-09-03 08:36:00,
2013-09-03 04:41:00,72.5,72.2,29.92,SSE,154,0.0,0.0,99,0.00,CLR,SKC,0.00,0.0,WeatherDisplay:10.37,2013-09-03 08:41:00,
2013-09-03 04:46:00,72.6,72.3,29.92,SSE,153,0.0,0.0,99,0.00,CLR,SKC,0.00,0.0,WeatherDisplay:10.37,2013-09-03 08:46:00,
2013-09-03 04:51:00,72.6,72.3,29.92,SSE,155,0.0,0.0,99,0.00,CLR,SKC,0.00,0.0,WeatherDisplay:10.37,2013-09-03 08:51:00,
2013-09-03 04:56:00,72.6,72.3,29.92,SSE,154,0.0,0.0,99,0.00,CLR,SKC,0.00,0.0,WeatherDisplay:10.37,2013-09-03 08:56:00,
2013-09-03 05:01:00,72.6,72.3,29.93,SSE,154,0.0,0.0,99,0.00,CLR,SKC,0.00,0.0,WeatherDisplay:10.37,2013-09-03 09:01:00,
2013-09-03 05:06:00,72.4,72.1,29.93,SSE,154,0.0,0.0,99,0.00,CLR,SKC,0.00,0.0,WeatherDisplay:10.37,2013-09-03 09:06:00,
2013-09-03 05:11:00,72.6,72.3,29.92,SSE,154,0.0,0.0,99,0.00,CLR,SKC,0.00,0.0,WeatherDisplay:10.37,2013-09-03 09:11:00,
2013-09-03 05:16:00,72.8,72.5,29.92,SSE,154,0.0,0.0,99,0.00,CLR,SKC,0.00,0.0,WeatherDisplay:10.37,2013-09-03 09:16:00,
2013-09-03 05:21:00,72.8,72.5,29.92,SSE,154,0.0,0.0,99,0.00,CLR,SKC,0.00,0.0,WeatherDisplay:10.37,2013-09-03 09:21:00,
2013-09-03 05:26:00,72.8,72.5,29.92,SSE,154,0.0,0.0,99,0.00,CLR,SKC,0.00,0.0,WeatherDisplay:10.37,2013-09-03 09:26:00,
2013-09-03 05:31:00,72.6,72.3,29.92,SSE,154,0.0,0.0,99,0.00,CLR,SKC,0.00,0.0,WeatherDisplay:10.37,2013-09-03 09:31:00,
2013-09-03 05:36:00,72.6,72.3,29.93,SSE,154,0.0,0.0,99,0.00,CLR,SKC,0.00,0.0,WeatherDisplay:10.37,2013-09-03 09:36:00,
2013-09-03 05:41:00,72.6,72.3,29.93,SSE,154,0.0,0.0,99,0.00,CLR,SKC,0.00,0.0,WeatherDisplay:10.37,2013-09-03 09:41:00,
2013-09-03 05:46:00,72.7,72.4,29.93,SSE,154,0.0,0.0,99,0.00,CLR,SKC,0.00,0.0,WeatherDisplay:10.37,2013-09-03 09:46:00,
2013-09-03 05:51:00,72.9,72.6,29.93,SSE,154,0.0,0.0,99,0.00,CLR,SKC,0.00,0.0,WeatherDisplay:10.37,2013-09-03 09:51:00,
2013-09-03 05:56:00,72.9,72.6,29.94,SSE,155,0.0,0.0,99,0.00,CLR,SKC,0.00,0.0,WeatherDisplay:10.37,2013-09-03 09:56:00,
2013-09-03 06:01:00,72.8,72.5,29.94,SSE,154,0.0,0.0,99,0.00,CLR,SKC,0.00,0.0,WeatherDisplay:10.37,2013-09-03 10:01:00,
2013-09-03 06:06:00,72.8,72.5,29.94,SSE,154,0.0,0.0,99,0.00,CLR,SKC,0.00,0.0,WeatherDisplay:10.37,2013-09-03 10:06:00,
2013-09-03 06:11:00,72.9,72.6,29.95,SSE,155,0.0,0.0,99,0.00,CLR,SKC,0.00,0.0,WeatherDisplay:10.37,2013-09-03 10:11:00,
2013-09-03 06:16:00,72.8,72.5,29.95,SSE,155,0.0,0.0,99,0.00,CLR,SKC,0.00,0.0,WeatherDisplay:10.37,2013-09-03 10:16:00,
2013-09-03 06:21:00,72.7,72.4,29.95,SSE,154,0.0,0.0,99,0.00,CLR,SKC,0.00,0.0,WeatherDisplay:10.37,2013-09-03 10:21:00,
2013-09-03 06:26:00,72.7,72.4,29.95,SSE,155,0.0,0.0,99,0.00,CLR,SKC,0.00,0.0,WeatherDisplay:10.37,2013-09-03 10:26:00,
2013-09-03 06:31:00,72.6,72.3,29.95,SSE,154,0.0,0.0,99,0.00,CLR,SKC,0.00,0.0,WeatherDisplay:10.37,2013-09-03 10:31:00,
2013-09-03 06:36:00,72.5,72.2,29.95,SSE,154,0.0,0.0,99,0.00,CLR,SKC,0.00,0.0,WeatherDisplay:10.37,2013-09-03 10:36:00,
2013-09-03 06:41:00,72.5,72.2,29.95,SSE,154,0.0,0.0,99,0.00,CLR,SKC,0.00,0.0,WeatherDisplay:10.37,2013-09-03 10:41:00,
2013-09-03 06:46:00,72.7,72.4,29.95,SSE,155,0.0,0.0,99,0.00,CLR,SKC,0.00,0.0,WeatherDisplay:10.37,2013-09-03 10:46:00,
2013-09-03 06:51:00,72.6,72.3,29.95,SSE,155,0.0,0.0,99,0.00,CLR,SKC,0.00,0.0,WeatherDisplay:10.37,2013-09-03 10:51:00,
2013-09-03 06:56:00,72.5,72.2,29.95,SSE,154,0.0,0.0,99,0.00,CLR,SKC,0.00,0.0,WeatherDisplay:10.37,2013-09-03 10:56:00,
2013-09-03 07:01:00,72.4,72.1,29.95,SSE,155,0.0,0.0,99,0.00,CLR,SKC,0.00,0.3,WeatherDisplay:10.37,2013-09-03 11:01:00,
2013-09-03 07:06:00,72.3,72.0,29.95,SSE,154,0.0,0.0,99,0.00,CLR,SKC,0.00,1.2,WeatherDisplay:10.37,2013-09-03 11:06:00,
2013-09-03 07:11:00,72.2,71.9,29.95,SSE,155,0.0,0.0,99,0.00,CLR,SKC,0.00,4.3,WeatherDisplay:10.37,2013-09-03 11:11:00,
2013-09-03 07:16:00,72.2,71.9,29.96,SSE,155,0.0,0.0,99,0.00,CLR,SKC,0.00,7.9,WeatherDisplay:10.37,2013-09-03 11:16:00,
2013-09-03 07:21:00,72.4,72.1,29.96,SSE,154,0.0,0.0,99,0.00,CLR,SKC,0.00,13.7,WeatherDisplay:10.37,2013-09-03 11:21:00,
2013-09-03 07:26:00,72.7,72.4,29.96,SSE,154,0.0,0.0,99,0.00,CLR,SKC,0.00,20.9,WeatherDisplay:10.37,2013-09-03 11:26:00,
2013-09-03 07:31:00,73.2,72.9,29.96,SSE,154,0.0,0.0,99,0.00,CLR,SKC,0.00,30.5,WeatherDisplay:10.37,2013-09-03 11:31:00,
2013-09-03 07:36:00,73.5,73.2,29.96,SSE,154,0.0,0.0,99,0.00,CLR,SKC,0.00,54.9,WeatherDisplay:10.37,2013-09-03 11:36:00,
2013-09-03 07:41:00,74.2,73.9,29.96,SSE,154,0.0,0.0,99,0.00,CLR,SKC,0.00,55.1,WeatherDisplay:10.37,2013-09-03 11:41:00,
2013-09-03 07:46:00,74.4,74.1,29.97,SSE,155,0.0,0.0,99,0.00,CLR,SKC,0.00,123.9,WeatherDisplay:10.37,2013-09-03 11:46:00,
2013-09-03 07:51:00,74.8,74.5,29.96,SSE,154,0.0,0.0,99,0.00,CLR,SKC,0.00,146.6,WeatherDisplay:10.37,2013-09-03 11:51:00,
2013-09-03 07:56:00,75.3,75.0,29.97,SSE,155,0.0,0.0,99,0.00,CLR,SKC,0.00,169.3,WeatherDisplay:10.37,2013-09-03 11:56:00,
2013-09-03 08:01:00,75.9,75.6,29.97,SSE,155,0.0,0.0,99,0.00,CLR,SKC,0.00,193.4,WeatherDisplay:10.37,2013-09-03 12:01:00,
2013-09-03 08:06:00,76.6,76.3,29.97,SSE,155,0.0,0.0,99,0.00,CLR,SKC,0.00,219.2,WeatherDisplay:10.37,2013-09-03 12:06:00,
2013-09-03 08:11:00,76.7,76.1,29.96,ESE,113,0.0,0.0,98,0.00,CLR,SKC,0.00,248.5,WeatherDisplay:10.37,2013-09-03 12:11:00,
2013-09-03 08:16:00,77.3,76.7,29.96,ESE,113,0.0,0.0,98,0.00,CLR,SKC,0.00,277.1,WeatherDisplay:10.37,2013-09-03 12:16:00,
2013-09-03 08:21:00,77.9,77.0,29.96,ESE,113,0.0,0.0,97,0.00,CLR,SKC,0.00,98.9,WeatherDisplay:10.37,2013-09-03 12:21:00,
2013-09-03 08:26:00,78.0,77.1,29.97,ESE,113,0.0,0.0,97,0.00,CLR,SKC,0.00,88.2,WeatherDisplay:10.37,2013-09-03 12:26:00,
2013-09-03 08:31:00,77.7,76.2,29.97,ESE,113,0.0,0.0,95,0.00,CLR,SKC,0.00,234.0,WeatherDisplay:10.37,2013-09-03 12:31:00,
2013-09-03 08:36:00,78.1,76.6,29.97,ESE,113,0.0,0.0,95,0.00,CLR,SKC,0.00,354.2,WeatherDisplay:10.37,2013-09-03 12:36:00,
2013-09-03 08:41:00,78.5,76.3,29.97,SE,131,0.0,0.0,93,0.00,CLR,SKC,0.00,439.5,WeatherDisplay:10.37,2013-09-03 12:41:00,
2013-09-03 08:46:00,79.5,77.0,29.97,East,98,0.0,0.0,92,0.00,CLR,SKC,0.00,476.6,WeatherDisplay:10.37,2013-09-03 12:46:00,
2013-09-03 08:51:00,80.2,77.3,29.97,SE,129,0.0,0.0,91,0.00,CLR,SKC,0.00,481.1,WeatherDisplay:10.37,2013-09-03 12:51:00,
2013-09-03 08:56:00,80.7,76.5,29.97,SE,141,0.0,0.0,87,0.00,CLR,SKC,0.00,396.6,WeatherDisplay:10.37,2013-09-03 12:56:00,
2013-09-03 09:01:00,80.9,76.3,29.97,SE,131,0.2,1.2,86,0.00,CLR,SKC,0.00,390.6,WeatherDisplay:10.37,2013-09-03 13:01:00,
2013-09-03 09:06:00,81.0,76.4,29.97,ESE,118,0.0,0.0,86,0.00,CLR,SKC,0.00,343.2,WeatherDisplay:10.37,2013-09-03 13:06:00,
2013-09-03 09:11:00,81.2,76.6,29.98,SE,143,0.0,0.0,86,0.00,CLR,SKC,0.00,328.2,WeatherDisplay:10.37,2013-09-03 13:11:00,
2013-09-03 09:16:00,81.6,77.0,29.98,East,82,0.0,0.0,86,0.00,CLR,SKC,0.00,470.1,WeatherDisplay:10.37,2013-09-03 13:16:00,
2013-09-03 09:21:00,81.7,76.4,29.99,East,101,0.0,1.2,84,0.00,CLR,SKC,0.00,621.7,WeatherDisplay:10.37,2013-09-03 13:21:00,
2013-09-03 09:26:00,82.2,76.5,29.99,SSE,148,0.0,0.0,83,0.00,CLR,SKC,0.00,660.8,WeatherDisplay:10.37,2013-09-03 13:26:00,
2013-09-03 09:31:00,82.9,76.8,29.99,SE,134,0.3,1.2,82,0.00,CLR,SKC,0.00,307.9,WeatherDisplay:10.37,2013-09-03 13:31:00,
2013-09-03 09:36:00,82.8,76.4,29.99,SE,133,0.0,0.0,81,0.00,CLR,SKC,0.00,750.0,WeatherDisplay:10.37,2013-09-03 13:36:00,
2013-09-03 09:41:00,83.4,77.3,29.99,SE,133,0.0,0.0,82,0.00,CLR,SKC,0.00,814.8,WeatherDisplay:10.37,2013-09-03 13:41:00,
2013-09-03 09:46:00,84.3,77.5,30.00,SE,124,0.2,1.2,80,0.00,CLR,SKC,0.00,854.1,WeatherDisplay:10.37,2013-09-03 13:46:00,
2013-09-03 09:51:00,84.7,77.8,30.00,SE,127,0.0,1.2,80,0.00,CLR,SKC,0.00,889.0,WeatherDisplay:10.37,2013-09-03 13:51:00,
2013-09-03 09:56:00,85.2,77.9,30.00,SE,138,0.0,1.2,79,0.00,CLR,SKC,0.00,909.0,WeatherDisplay:10.37,2013-09-03 13:56:00,
2013-09-03 10:01:00,85.7,77.7,29.99,SW,218,0.0,0.0,77,0.00,CLR,SKC,0.00,929.0,WeatherDisplay:10.37,2013-09-03 14:01:00,
2013-09-03 10:06:00,86.0,78.3,30.00,ESE,112,0.1,1.2,78,0.00,CLR,SKC,0.00,949.0,WeatherDisplay:10.37,2013-09-03 14:06:00,
2013-09-03 10:11:00,86.3,78.6,30.00,ESE,121,0.0,0.0,78,0.00,CLR,SKC,0.00,968.0,WeatherDisplay:10.37,2013-09-03 14:11:00,
2013-09-03 10:16:00,86.8,78.7,30.00,NNW,332,0.0,0.0,77,0.00,CLR,SKC,0.00,987.0,WeatherDisplay:10.37,2013-09-03 14:16:00,
2013-09-03 10:21:00,87.1,78.6,30.00,ENE,70,0.0,0.0,76,0.00,CLR,SKC,0.00,1005.0,WeatherDisplay:10.37,2013-09-03 14:21:00,
2013-09-03 10:26:00,87.0,77.7,30.00,SE,138,0.0,0.0,74,0.00,CLR,SKC,0.00,1023.0,WeatherDisplay:10.37,2013-09-03 14:26:00,
2013-09-03 10:31:00,87.5,78.2,30.00,SE,145,0.2,1.2,74,0.00,CLR,SKC,0.00,1040.0,WeatherDisplay:10.37,2013-09-03 14:31:00,
2013-09-03 10:36:00,87.8,78.5,30.00,SE,141,0.0,0.0,74,0.00,CLR,SKC,0.00,1057.0,WeatherDisplay:10.37,2013-09-03 14:36:00,
2013-09-03 10:41:00,88.5,77.9,30.00,SW,218,0.0,0.0,71,0.00,CLR,SKC,0.00,1073.0,WeatherDisplay:10.37,2013-09-03 14:41:00,
2013-09-03 10:46:00,88.5,77.0,30.01,SE,134,1.2,2.3,69,0.00,CLR,SKC,0.00,1089.0,WeatherDisplay:10.37,2013-09-03 14:46:00,
2013-09-03 10:51:00,88.0,77.4,30.01,East,84,0.9,1.2,71,0.00,CLR,SKC,0.00,1104.0,WeatherDisplay:10.37,2013-09-03 14:51:00,
2013-09-03 10:56:00,88.4,77.8,30.01,SW,236,1.4,3.5,71,0.00,CLR,SKC,0.00,1118.0,WeatherDisplay:10.37,2013-09-03 14:56:00,
2013-09-03 11:01:00,88.2,77.2,30.01,SW,222,0.0,0.0,70,0.00,CLR,SKC,0.00,569.4,WeatherDisplay:10.37,2013-09-03 15:01:00,
2013-09-03 11:06:00,89.1,78.0,30.02,NNE,27,0.0,0.0,70,0.00,CLR,SKC,0.00,1145.0,WeatherDisplay:10.37,2013-09-03 15:06:00,
2013-09-03 11:11:00,89.4,77.4,30.01,WNW,294,0.3,1.2,68,0.00,CLR,SKC,0.00,582.0,WeatherDisplay:10.37,2013-09-03 15:11:00,
2013-09-03 11:16:00,89.2,76.8,30.01,WNW,289,0.0,0.0,67,0.00,CLR,SKC,0.00,576.3,WeatherDisplay:10.37,2013-09-03 15:16:00,
2013-09-03 11:21:00,88.5,76.6,30.01,SW,221,0.0,0.0,68,0.00,CLR,SKC,0.00,498.0,WeatherDisplay:10.37,2013-09-03 15:21:00,
2013-09-03 11:26:00,87.9,77.7,30.01,SSW,208,0.0,0.0,72,0.00,CLR,SKC,0.00,651.5,WeatherDisplay:10.37,2013-09-03 15:26:00,
2013-09-03 11:31:00,87.8,77.2,30.01,SW,219,2.1,2.3,71,0.00,CLR,SKC,0.00,1200.0,WeatherDisplay:10.37,2013-09-03 15:31:00,
2013-09-03 11:36:00,87.3,76.7,30.02,SW,223,1.6,3.5,71,0.00,CLR,SKC,0.00,805.2,WeatherDisplay:10.37,2013-09-03 15:36:00,
2013-09-03 11:41:00,87.4,76.8,30.02,South,169,1.8,2.3,71,0.00,CLR,SKC,0.00,671.8,WeatherDisplay:10.37,2013-09-03 15:41:00,
2013-09-03 11:46:00,87.1,76.1,30.02,SSE,158,2.7,4.6,70,0.00,CLR,SKC,0.00,657.8,WeatherDisplay:10.37,2013-09-03 15:46:00,
2013-09-03 11:51:00,86.7,75.7,30.02,SE,141,1.4,3.5,70,0.00,CLR,SKC,0.00,667.2,WeatherDisplay:10.37,2013-09-03 15:51:00,
2013-09-03 11:56:00,86.5,76.4,30.01,South,172,1.9,2.3,72,0.00,CLR,SKC,0.00,628.4,WeatherDisplay:10.37,2013-09-03 15:56:00,
2013-09-03 12:01:00,86.3,77.0,30.01,WSW,249,0.2,1.1,74,0.00,CLR,SKC,0.00,658.3,WeatherDisplay:10.37,2013-09-03 16:01:00,
2013-09-03 12:06:00,86.1,76.8,30.01,SSW,194,1.1,2.2,74,0.00,CLR,SKC,0.00,715.2,WeatherDisplay:10.37,2013-09-03 16:06:00,
2013-09-03 12:11:00,86.1,77.2,30.01,SSE,148,1.3,2.3,75,0.00,CLR,SKC,0.00,1025.0,WeatherDisplay:10.37,2013-09-03 16:11:00,
2013-09-03 12:16:00,86.5,77.2,30.01,SE,133,0.6,1.2,74,0.00,CLR,SKC,0.00,1021.2,WeatherDisplay:10.37,2013-09-03 16:16:00,
2013-09-03 12:21:00,86.9,76.8,30.01,SSW,208,1.8,2.3,72,0.00,CLR,SKC,0.00,1255.0,WeatherDisplay:10.37,2013-09-03 16:21:00,
2013-09-03 12:26:00,87.5,76.9,30.01,SE,144,0.8,1.2,71,0.00,CLR,SKC,0.00,1256.0,WeatherDisplay:10.37,2013-09-03 16:26:00,
2013-09-03 12:31:00,87.7,76.3,30.01,ESE,121,0.0,1.2,69,0.00,CLR,SKC,0.00,815.1,WeatherDisplay:10.37,2013-09-03 16:31:00,
2013-09-03 12:36:00,87.8,76.8,30.01,SSW,210,0.0,0.0,70,0.00,CLR,SKC,0.00,766.2,WeatherDisplay:10.37,2013-09-03 16:36:00,
2013-09-03 12:41:00,87.6,76.2,30.01,SW,215,0.3,1.2,69,0.00,CLR,SKC,0.00,714.1,WeatherDisplay:10.37,2013-09-03 16:41:00,
2013-09-03 12:46:00,87.6,76.2,30.02,WNW,302,3.5,5.5,69,0.00,CLR,SKC,0.00,477.4,WeatherDisplay:10.37,2013-09-03 16:46:00,
2013-09-03 12:51:00,86.0,76.3,30.02,WNW,299,12.1,18.4,73,0.00,CLR,SKC,0.00,205.0,WeatherDisplay:10.37,2013-09-03 16:51:00,
2013-09-03 12:56:00,83.3,75.3,30.01,NW,307,4.0,10.4,77,0.00,CLR,SKC,0.00,261.7,WeatherDisplay:10.37,2013-09-03 16:56:00,
2013-09-03 13:01:00,81.6,74.8,30.01,North,5,7.0,11.0,80,0.00,CLR,SKC,0.00,263.3,WeatherDisplay:10.37,2013-09-03 17:01:00,
2013-09-03 13:06:00,80.6,74.6,30.01,NNW,343,7.6,10.4,82,0.00,CLR,SKC,0.00,232.6,WeatherDisplay:10.37,2013-09-03 17:06:00,
2013-09-03 13:11:00,79.9,74.3,30.01,NW,325,4.1,5.8,83,0.00,CLR,SKC,0.00,237.6,WeatherDisplay:10.37,2013-09-03 17:11:00,
2013-09-03 13:16:00,79.6,74.3,30.01,North,354,2.9,6.6,84,0.00,CLR,SKC,0.00,217.9,WeatherDisplay:10.37,2013-09-03 17:16:00,
2013-09-03 13:21:00,79.4,73.8,30.01,WNW,293,3.9,5.8,83,0.00,CLR,SKC,0.00,249.5,WeatherDisplay:10.37,2013-09-03 17:21:00,
2013-09-03 13:26:00,79.1,73.8,30.00,NW,316,1.5,4.6,84,0.00,CLR,SKC,0.00,319.2,WeatherDisplay:10.37,2013-09-03 17:26:00,
2013-09-03 13:31:00,79.2,74.3,30.00,West,269,0.0,1.2,85,0.00,CLR,SKC,0.00,457.2,WeatherDisplay:10.37,2013-09-03 17:31:00,
2013-09-03 13:36:00,79.8,74.9,30.00,WSW,243,0.0,1.2,85,0.00,CLR,SKC,0.00,1190.0,WeatherDisplay:10.37,2013-09-03 17:36:00,
2013-09-03 13:41:00,81.0,76.4,29.99,NNW,328,1.1,3.5,86,0.00,CLR,SKC,0.00,1180.0,WeatherDisplay:10.37,2013-09-03 17:41:00,
2013-09-03 13:46:00,82.2,76.5,29.99,NE,41,0.8,3.5,83,0.00,CLR,SKC,0.00,1169.0,WeatherDisplay:10.37,2013-09-03 17:46:00,
2013-09-03 13:51:00,83.4,77.3,29.99,NNE,18,2.9,4.6,82,0.00,CLR,SKC,0.00,1157.0,WeatherDisplay:10.37,2013-09-03 17:51:00,
2013-09-03 13:56:00,84.6,77.0,29.98,NNE,14,0.0,1.2,78,0.00,CLR,SKC,0.00,1145.0,WeatherDisplay:10.37,2013-09-03 17:56:00,
2013-09-03 14:01:00,85.9,78.6,29.98,NNE,30,0.1,1.2,79,0.00,BKN,SKC,0.00,1131.0,WeatherDisplay:10.37,2013-09-03 18:01:00,
2013-09-03 14:06:00,86.8,75.8,29.98,NW,309,1.6,3.5,70,0.00,BKN,SKC,0.00,1117.0,WeatherDisplay:10.37,2013-09-03 18:06:00,
2013-09-03 14:11:00,87.2,77.1,29.98,NW,314,5.2,5.8,72,0.00,BKN,SKC,0.00,1103.0,WeatherDisplay:10.37,2013-09-03 18:11:00,
2013-09-03 14:16:00,86.5,76.4,29.97,NNE,23,2.9,4.4,72,0.00,BKN,SKC,0.00,1088.0,WeatherDisplay:10.37,2013-09-03 18:16:00,
2013-09-03 14:21:00,86.6,77.3,29.97,WNW,302,3.5,3.5,74,0.00,BKN,SKC,0.00,913.3,WeatherDisplay:10.37,2013-09-03 18:21:00,
2013-09-03 14:26:00,86.8,77.5,29.98,North,11,1.8,6.9,74,0.00,BKN,SKC,0.00,1056.0,WeatherDisplay:10.37,2013-09-03 18:26:00,
2013-09-03 14:31:00,87.1,75.7,29.98,North,349,3.2,3.5,69,0.00,BKN,SKC,0.00,1039.0,WeatherDisplay:10.37,2013-09-03 18:31:00,
2013-09-03 14:36:00,88.1,75.8,29.97,WNW,298,4.0,5.5,67,0.00,BKN,SKC,0.00,1022.0,WeatherDisplay:10.37,2013-09-03 18:36:00,
2013-09-03 14:41:00,88.1,77.1,29.98,WNW,287,1.3,3.5,70,0.00,BKN,SKC,0.00,889.5,WeatherDisplay:10.37,2013-09-03 18:41:00,
2013-09-03 14:46:00,87.7,75.8,29.97,NNW,338,5.3,5.8,68,0.00,BKN,SKC,0.00,773.0,WeatherDisplay:10.37,2013-09-03 18:46:00,
2013-09-03 14:51:00,87.5,76.1,29.97,NNW,336,0.9,3.5,69,0.00,BKN,SKC,0.00,967.0,WeatherDisplay:10.37,2013-09-03 18:51:00,
2013-09-03 14:56:00,88.3,77.3,29.97,NW,307,0.1,3.5,70,0.00,BKN,SKC,0.00,948.0,WeatherDisplay:10.37,2013-09-03 18:56:00,
2013-09-03 15:01:00,89.0,77.1,29.97,NE,38,0.4,4.6,68,0.00,CLR,SKC,0.00,928.0,WeatherDisplay:10.37,2013-09-03 19:01:00,
2013-09-03 15:06:00,89.1,76.3,29.96,North,349,1.5,3.5,66,0.00,CLR,SKC,0.00,908.0,WeatherDisplay:10.37,2013-09-03 19:06:00,
2013-09-03 15:11:00,89.3,76.0,29.96,ENE,60,2.5,4.6,65,0.00,CLR,SKC,0.00,888.0,WeatherDisplay:10.37,2013-09-03 19:11:00,
2013-09-03 15:16:00,89.6,76.3,29.96,NE,46,4.1,5.5,65,0.00,CLR,SKC,0.00,867.0,WeatherDisplay:10.37,2013-09-03 19:16:00,
2013-09-03 15:21:00,89.4,75.6,29.96,North,350,2.5,3.5,64,0.00,CLR,SKC,0.00,373.9,WeatherDisplay:10.37,2013-09-03 19:21:00,
2013-09-03 15:26:00,88.6,75.8,29.96,North,9,1.0,2.3,66,0.00,CLR,SKC,0.00,342.4,WeatherDisplay:10.37,2013-09-03 19:26:00,
2013-09-03 15:31:00,88.5,76.1,29.95,NW,313,0.2,2.3,67,0.00,CLR,SKC,0.00,497.9,WeatherDisplay:10.37,2013-09-03 19:31:00,
2013-09-03 15:36:00,88.3,76.4,29.95,NNE,24,0.0,1.2,68,0.00,CLR,SKC,0.00,781.0,WeatherDisplay:10.37,2013-09-03 19:36:00,
2013-09-03 15:41:00,88.5,76.1,29.94,North,6,4.9,6.9,67,0.00,CLR,SKC,0.00,759.0,WeatherDisplay:10.37,2013-09-03 19:41:00,
2013-09-03 15:46:00,88.9,77.0,29.95,North,9,0.0,2.3,68,0.00,CLR,SKC,0.00,395.8,WeatherDisplay:10.37,2013-09-03 19:46:00,
2013-09-03 15:51:00,88.3,75.9,29.95,WNW,297,0.5,2.3,67,0.00,CLR,SKC,0.00,172.8,WeatherDisplay:10.37,2013-09-03 19:51:00,
2013-09-03 15:56:00,87.6,75.7,29.95,WNW,303,2.6,4.6,68,0.00,CLR,SKC,0.00,104.5,WeatherDisplay:10.37,2013-09-03 19:56:00,
2013-09-03 16:01:00,86.8,75.4,29.94,ENE,74,0.0,0.0,69,0.00,CLR,SKC,0.00,132.5,WeatherDisplay:10.37,2013-09-03 20:01:00,
2013-09-03 16:06:00,86.7,75.7,29.94,North,350,0.0,0.0,70,0.00,CLR,SKC,0.00,154.4,WeatherDisplay:10.37,2013-09-03 20:06:00,
2013-09-03 16:11:00,86.5,76.0,29.95,NW,312,0.0,0.0,71,0.00,CLR,SKC,0.00,150.8,WeatherDisplay:10.37,2013-09-03 20:11:00,
2013-09-03 16:16:00,86.2,75.7,29.95,WNW,302,1.3,3.5,71,0.00,BKN,SKC,0.00,139.2,WeatherDisplay:10.37,2013-09-03 20:16:00,
2013-09-03 16:21:00,86.2,75.3,29.95,West,278,3.5,4.6,70,0.00,BKN,SKC,0.00,131.0,WeatherDisplay:10.37,2013-09-03 20:21:00,
2013-09-03 16:26:00,85.9,75.0,29.94,WNW,293,1.7,3.5,70,0.00,BKN,SKC,0.00,128.8,WeatherDisplay:10.37,2013-09-03 20:26:00,
2013-09-03 16:31:00,85.8,74.9,29.94,NW,317,1.3,2.2,70,0.00,BKN,SKC,0.00,133.5,WeatherDisplay:10.37,2013-09-03 20:31:00,
2013-09-03 16:36:00,85.8,74.9,29.94,WNW,294,0.2,1.2,70,0.00,BKN,SKC,0.00,140.5,WeatherDisplay:10.37,2013-09-03 20:36:00,
2013-09-03 16:41:00,86.1,75.6,29.94,North,4,0.0,1.2,71,0.00,BKN,SKC,0.00,142.4,WeatherDisplay:10.37,2013-09-03 20:41:00,
2013-09-03 16:46:00,86.3,75.8,29.94,North,356,0.6,1.2,71,0.00,BKN,SKC,0.00,150.8,WeatherDisplay:10.37,2013-09-03 20:46:00,
2013-09-03 16:51:00,86.0,76.7,29.94,WNW,294,0.9,3.5,74,0.00,BKN,SKC,0.00,159.2,WeatherDisplay:10.37,2013-09-03 20:51:00,
2013-09-03 16:56:00,85.3,77.7,29.94,WNW,287,1.0,2.2,78,0.00,BKN,SKC,0.00,303.8,WeatherDisplay:10.37,2013-09-03 20:56:00,
2013-09-03 17:01:00,85.2,77.6,29.94,WNW,297,1.1,2.3,78,0.00,BKN,SKC,0.00,237.4,WeatherDisplay:10.37,2013-09-03 21:01:00,
2013-09-03 17:06:00,85.6,77.9,29.94,NW,320,1.3,1.3,78,0.00,BKN,SKC,0.00,253.5,WeatherDisplay:10.37,2013-09-03 21:06:00,
2013-09-03 17:11:00,85.8,78.1,29.94,SW,225,0.0,1.2,78,0.00,BKN,SKC,0.00,301.6,WeatherDisplay:10.37,2013-09-03 21:11:00,
2013-09-03 17:16:00,86.4,77.9,29.93,SW,219,0.1,1.2,76,0.00,SCT,SKC,0.00,264.1,WeatherDisplay:10.37,2013-09-03 21:16:00,
2013-09-03 17:21:00,87.0,77.7,29.93,WNW,300,0.3,2.2,74,0.00,SCT,SKC,0.00,200.3,WeatherDisplay:10.37,2013-09-03 21:21:00,
2013-09-03 17:26:00,87.1,77.0,29.93,West,279,0.0,0.0,72,0.00,SCT,SKC,0.00,181.0,WeatherDisplay:10.37,2013-09-03 21:26:00,
2013-09-03 17:31:00,87.1,77.4,29.93,ESE,115,0.0,0.0,73,0.00,SCT,SKC,0.00,205.1,WeatherDisplay:10.37,2013-09-03 21:31:00,
2013-09-03 17:36:00,87.2,77.5,29.93,ESE,115,0.0,0.0,73,0.00,SCT,SKC,0.00,124.0,WeatherDisplay:10.37,2013-09-03 21:36:00,
2013-09-03 17:41:00,87.2,77.1,29.93,East,90,0.0,0.0,72,0.00,SCT,SKC,0.00,76.7,WeatherDisplay:10.37,2013-09-03 21:41:00,
2013-09-03 17:46:00,86.8,77.1,29.93,East,91,0.0,0.0,73,0.00,SCT,SKC,0.00,67.5,WeatherDisplay:10.37,2013-09-03 21:46:00,
2013-09-03 17:51:00,86.9,76.4,29.93,ENE,74,0.0,0.0,71,0.00,SCT,SKC,0.00,68.7,WeatherDisplay:10.37,2013-09-03 21:51:00,
2013-09-03 17:56:00,86.8,76.3,29.93,NE,41,0.0,0.0,71,0.00,SCT,SKC,0.00,63.7,WeatherDisplay:10.37,2013-09-03 21:56:00,
2013-09-03 18:01:00,86.5,76.8,29.93,ESE,113,0.0,0.0,73,0.00,CLR,SKC,0.00,51.0,WeatherDisplay:10.37,2013-09-03 22:01:00,
2013-09-03 18:06:00,86.5,77.2,29.93,ESE,111,0.0,0.0,74,0.00,CLR,SKC,0.00,42.8,WeatherDisplay:10.37,2013-09-03 22:06:00,
2013-09-03 18:11:00,86.5,76.4,29.93,ESE,106,0.0,0.0,72,0.00,CLR,SKC,0.00,38.4,WeatherDisplay:10.37,2013-09-03 22:11:00,
2013-09-03 18:16:00,86.4,76.7,29.93,ESE,106,0.0,0.0,73,0.00,CLR,SKC,0.00,32.0,WeatherDisplay:10.37,2013-09-03 22:16:00,
2013-09-03 18:21:00,86.3,76.2,29.92,East,101,0.0,0.0,72,0.00,CLR,SKC,0.00,24.3,WeatherDisplay:10.37,2013-09-03 22:21:00,
2013-09-03 18:26:00,86.2,76.5,29.92,ENE,63,1.0,2.2,73,0.00,CLR,SKC,0.00,19.4,WeatherDisplay:10.37,2013-09-03 22:26:00,
2013-09-03 18:31:00,85.9,76.2,29.92,NE,56,0.0,0.0,73,0.00,CLR,SKC,0.00,13.9,WeatherDisplay:10.37,2013-09-03 22:31:00,
2013-09-03 18:36:00,85.7,76.0,29.92,NNE,20,1.0,3.5,73,0.00,CLR,SKC,0.00,9.4,WeatherDisplay:10.37,2013-09-03 22:36:00,
2013-09-03 18:41:00,85.5,76.7,29.93,ENE,65,0.1,1.2,75,0.00,CLR,SKC,0.00,5.7,WeatherDisplay:10.37,2013-09-03 22:41:00,
2013-09-03 18:46:00,85.3,76.5,29.93,ENE,78,0.3,1.2,75,0.00,CLR,SKC,0.00,2.5,WeatherDisplay:10.37,2013-09-03 22:46:00,
2013-09-03 18:51:00,85.2,76.4,29.93,ENE,78,0.0,1.2,75,0.00,CLR,SKC,0.00,0.5,WeatherDisplay:10.37,2013-09-03 22:51:00,
2013-09-03 18:56:00,85.1,76.7,29.93,ENE,78,0.0,0.0,76,0.00,CLR,SKC,0.00,0.5,WeatherDisplay:10.37,2013-09-03 22:56:00,
2013-09-03 19:01:00,84.9,77.7,29.93,ENE,77,0.0,0.0,79,0.00,BKN,SKC,0.00,0.5,WeatherDisplay:10.37,2013-09-03 23:01:00,
2013-09-03 19:06:00,84.5,78.0,29.93,ENE,77,0.0,0.0,81,0.00,BKN,SKC,0.00,0.5,WeatherDisplay:10.37,2013-09-03 23:06:00,
2013-09-03 19:11:00,84.0,77.9,29.94,ENE,78,0.0,0.0,82,0.00,BKN,SKC,0.00,0.5,WeatherDisplay:10.37,2013-09-03 23:11:00,
2013-09-03 19:16:00,83.6,78.6,29.94,ENE,77,0.0,0.0,85,0.00,BKN,SKC,0.00,0.5,WeatherDisplay:10.37,2013-09-03 23:16:00,
2013-09-03 19:21:00,83.1,78.5,29.94,ENE,77,0.0,0.0,86,0.00,BKN,SKC,0.00,0.5,WeatherDisplay:10.37,2013-09-03 23:21:00,
2013-09-03 19:26:00,82.6,77.6,29.94,ENE,78,0.0,0.0,85,0.00,BKN,SKC,0.00,0.5,WeatherDisplay:10.37,2013-09-03 23:26:00,
2013-09-03 19:31:00,82.3,78.0,29.94,ENE,78,0.0,0.0,87,0.00,BKN,SKC,0.00,0.5,WeatherDisplay:10.37,2013-09-03 23:31:00,
2013-09-03 19:36:00,81.9,78.0,29.94,ENE,77,0.0,0.0,88,0.00,BKN,SKC,0.00,0.5,WeatherDisplay:10.37,2013-09-03 23:36:00,
2013-09-03 19:41:00,81.5,77.9,29.95,ENE,77,0.0,0.0,89,0.00,BKN,SKC,0.00,0.5,WeatherDisplay:10.37,2013-09-03 23:41:00,
2013-09-03 19:46:00,81.0,77.4,29.95,ENE,77,0.0,0.0,89,0.00,BKN,SKC,0.00,0.5,WeatherDisplay:10.37,2013-09-03 23:46:00,
2013-09-03 19:51:00,80.6,77.4,29.95,ENE,77,0.0,0.0,90,0.00,BKN,SKC,0.00,0.5,WeatherDisplay:10.37,2013-09-03 23:51:00,
2013-09-03 19:56:00,80.3,77.4,29.95,ENE,77,0.0,0.0,91,0.00,BKN,SKC,0.00,0.5,WeatherDisplay:10.37,2013-09-03 23:56:00,
2013-09-03 20:01:00,80.0,77.1,29.96,ENE,78,0.0,0.0,91,0.00,CLR,SKC,0.00,0.0,WeatherDisplay:10.37,2013-09-04 00:01:00,
2013-09-03 20:06:00,79.6,76.7,29.96,ENE,78,0.0,0.0,91,0.00,CLR,SKC,0.00,0.0,WeatherDisplay:10.37,2013-09-04 00:06:00,
2013-09-03 20:11:00,79.2,76.7,29.96,ENE,77,0.0,0.0,92,0.00,CLR,SKC,0.00,0.0,WeatherDisplay:10.37,2013-09-04 00:11:00,
2013-09-03 20:16:00,79.0,76.5,29.96,ENE,78,0.0,0.0,92,0.00,CLR,SKC,0.00,0.0,WeatherDisplay:10.37,2013-09-04 00:16:00,
2013-09-03 20:21:00,78.6,76.1,29.96,ENE,77,0.0,0.0,92,0.00,CLR,SKC,0.00,0.0,WeatherDisplay:10.37,2013-09-04 00:21:00,
2013-09-03 20:26:00,78.4,76.2,29.96,ENE,78,0.0,0.0,93,0.00,CLR,SKC,0.00,0.0,WeatherDisplay:10.37,2013-09-04 00:26:00,
2013-09-03 20:31:00,78.3,76.1,29.96,ENE,78,0.0,0.0,93,0.00,CLR,SKC,0.00,0.0,WeatherDisplay:10.37,2013-09-04 00:31:00,
2013-09-03 20:36:00,78.1,75.9,29.96,ENE,78,0.0,0.0,93,0.00,CLR,SKC,0.00,0.0,WeatherDisplay:10.37,2013-09-04 00:36:00,
2013-09-03 20:41:00,77.9,75.7,29.96,ENE,77,0.0,0.0,93,0.00,CLR,SKC,0.00,0.0,WeatherDisplay:10.37,2013-09-04 00:41:00,
2013-09-03 20:46:00,77.8,75.9,29.96,ENE,78,0.0,0.0,94,0.00,CLR,SKC,0.00,0.0,WeatherDisplay:10.37,2013-09-04 00:46:00,
2013-09-03 20:51:00,77.6,75.7,29.96,ENE,78,0.0,0.0,94,0.00,CLR,SKC,0.00,0.0,WeatherDisplay:10.37,2013-09-04 00:51:00,
2013-09-03 20:56:00,77.7,75.8,29.96,ENE,77,0.0,0.0,94,0.00,CLR,SKC,0.00,0.0,WeatherDisplay:10.37,2013-09-04 00:56:00,
2013-09-03 21:02:00,77.6,75.7,29.96,ENE,77,0.0,0.0,94,0.00,CLR,SKC,0.00,0.0,WeatherDisplay:10.37,2013-09-04 01:02:00,
2013-09-03 21:07:00,77.4,75.9,29.96,ENE,77,0.0,0.0,95,0.00,CLR,SKC,0.00,0.0,WeatherDisplay:10.37,2013-09-04 01:07:00,
2013-09-03 21:12:00,77.4,75.9,29.97,ENE,77,0.0,0.0,95,0.00,CLR,SKC,0.00,0.0,WeatherDisplay:10.37,2013-09-04 01:12:00,
2013-09-03 21:17:00,77.2,75.3,29.97,ENE,77,0.0,0.0,94,0.00,CLR,SKC,0.00,0.0,WeatherDisplay:10.37,2013-09-04 01:17:00,
2013-09-03 21:22:00,77.0,75.1,29.97,ENE,77,0.0,0.0,94,0.00,CLR,SKC,0.00,0.0,WeatherDisplay:10.37,2013-09-04 01:22:00,
2013-09-03 21:27:00,76.8,74.9,29.97,ENE,77,0.0,0.0,94,0.00,CLR,SKC,0.00,0.0,WeatherDisplay:10.37,2013-09-04 01:27:00,
2013-09-03 21:32:00,76.7,75.2,29.97,ENE,77,0.0,0.0,95,0.00,CLR,SKC,0.00,0.0,WeatherDisplay:10.37,2013-09-04 01:32:00,
2013-09-03 21:37:00,76.8,75.3,29.97,ENE,78,0.0,0.0,95,0.00,CLR,SKC,0.00,0.0,WeatherDisplay:10.37,2013-09-04 01:37:00,
2013-09-03 21:42:00,76.9,75.4,29.97,ENE,78,0.0,0.0,95,0.00,CLR,SKC,0.00,0.0,WeatherDisplay:10.37,2013-09-04 01:42:00,
2013-09-03 21:47:00,77.0,75.5,29.98,ENE,77,0.0,0.0,95,0.00,CLR,SKC,0.00,0.0,WeatherDisplay:10.37,2013-09-04 01:47:00,
2013-09-03 21:52:00,77.0,75.5,29.98,ENE,77,0.0,0.0,95,0.00,CLR,SKC,0.00,0.0,WeatherDisplay:10.37,2013-09-04 01:52:00,
2013-09-03 21:57:00,76.8,75.3,29.99,ENE,78,0.0,0.0,95,0.00,CLR,SKC,0.00,0.0,WeatherDisplay:10.37,2013-09-04 01:57:00,
2013-09-03 22:02:00,76.8,75.3,29.99,ENE,77,0.0,0.0,95,0.00,CLR,SKC,0.00,0.0,WeatherDisplay:10.37,2013-09-04 02:02:00,
2013-09-03 22:07:00,76.9,75.7,29.99,ENE,77,0.0,0.0,96,0.00,CLR,SKC,0.00,0.0,WeatherDisplay:10.37,2013-09-04 02:07:00,
2013-09-03 22:12:00,76.9,75.4,29.99,ENE,78,0.0,0.0,95,0.00,CLR,SKC,0.00,0.0,WeatherDisplay:10.37,2013-09-04 02:12:00,
2013-09-03 22:17:00,76.8,75.3,29.99,ENE,78,0.0,0.0,95,0.00,CLR,SKC,0.00,0.0,WeatherDisplay:10.37,2013-09-04 02:17:00,
2013-09-03 22:22:00,76.8,75.3,29.99,ENE,77,0.0,0.0,95,0.00,CLR,SKC,0.00,0.0,WeatherDisplay:10.37,2013-09-04 02:22:00,
2013-09-03 22:27:00,76.7,75.2,29.99,SE,142,0.3,1.2,95,0.00,CLR,SKC,0.00,0.0,WeatherDisplay:10.37,2013-09-04 02:27:00,
2013-09-03 22:32:00,77.0,75.5,29.99,SE,141,0.0,0.0,95,0.00,CLR,SKC,0.00,0.0,WeatherDisplay:10.37,2013-09-04 02:32:00,
2013-09-03 22:37:00,77.1,75.2,30.00,SE,141,0.0,0.0,94,0.00,CLR,SKC,0.00,0.0,WeatherDisplay:10.37,2013-09-04 02:37:00,
2013-09-03 22:42:00,77.2,75.3,29.99,SE,142,0.0,0.0,94,0.00,CLR,SKC,0.00,0.0,WeatherDisplay:10.37,2013-09-04 02:42:00,
2013-09-03 22:47:00,77.1,75.2,30.00,SE,142,0.0,0.0,94,0.00,CLR,SKC,0.00,0.0,WeatherDisplay:10.37,2013-09-04 02:47:00,
2013-09-03 22:52:00,77.1,75.2,30.00,SE,138,0.0,0.0,94,0.00,CLR,SKC,0.00,0.0,WeatherDisplay:10.37,2013-09-04 02:52:00,
2013-09-03 22:57:00,77.3,75.4,30.00,SE,138,0.0,0.0,94,0.00,CLR,SKC,0.00,0.0,WeatherDisplay:10.37,2013-09-04 02:57:00,
2013-09-03 23:02:00,77.4,75.5,30.00,SE,139,0.0,0.0,94,0.00,CLR,SKC,0.00,0.0,WeatherDisplay:10.37,2013-09-04 03:02:00,
2013-09-03 23:07:00,77.3,75.1,30.00,SE,138,0.0,0.0,93,0.00,CLR,SKC,0.00,0.0,WeatherDisplay:10.37,2013-09-04 03:07:00,
2013-09-03 23:12:00,77.3,75.4,30.00,SE,138,0.0,0.0,94,0.00,CLR,SKC,0.00,0.0,WeatherDisplay:10.37,2013-09-04 03:12:00,
2013-09-03 23:17:00,77.1,75.2,30.00,SE,138,0.0,0.0,94,0.00,FEW,SKC,0.00,0.0,WeatherDisplay:10.37,2013-09-04 03:17:00,
2013-09-03 23:22:00,77.1,75.2,30.00,SE,138,0.0,0.0,94,0.00,FEW,SKC,0.00,0.0,WeatherDisplay:10.37,2013-09-04 03:22:00,
2013-09-03 23:27:00,77.3,75.4,30.00,SE,138,0.0,0.0,94,0.00,FEW,SKC,0.00,0.0,WeatherDisplay:10.37,2013-09-04 03:27:00,
2013-09-03 23:32:00,77.6,75.7,30.00,SE,138,0.0,0.0,94,0.00,FEW,SKC,0.00,0.0,WeatherDisplay:10.37,2013-09-04 03:32:00,
2013-09-03 23:37:00,77.8,75.6,30.00,SE,139,0.0,0.0,93,0.00,FEW,SKC,0.00,0.0,WeatherDisplay:10.37,2013-09-04 03:37:00,
2013-09-03 23:42:00,77.9,75.7,30.00,SE,138,0.0,0.0,93,0.00,FEW,SKC,0.00,0.0,WeatherDisplay:10.37,2013-09-04 03:42:00,
2013-09-03 23:47:00,77.8,75.6,30.00,SE,139,0.0,0.0,93,0.00,FEW,SKC,0.00,0.0,WeatherDisplay:10.37,2013-09-04 03:47:00,
2013-09-03 23:52:00,77.5,75.3,30.00,SE,138,0.0,0.0,93,0.00,FEW,SKC,0.00,0.0,WeatherDisplay:10.37,2013-09-04 03:52:00,
2013-09-03 23:57:00,77.2,75.0,30.00,SE,138,0.0,0.0,93,0.00,FEW,SKC,0.00,0.0,WeatherDisplay:10.37,2013-09-04 03:57:00,